Atalanti — 5BYY2 — position and weather

sailwx.info

Track history (hours):
 
Tides and Currents Weather Stations Pressure Air Temp Water Temp Dewpoint Dewpoint Depression Visibility Wind Speed Wind Dir Waves Ship Positions

Atalanti

Last reported at 2015-Sep-02 21:21 UTC. Time now 2015-Sep-03 12:58 UTC.
Position N 37°55' E 023°03'.

Length 97 m; draft 3 m.

Type: Other ship. MMSI: 212279000.

Date/timePositionNaut miles runAvg speedWind from/ knotsBaromVisibWave heightAir tempDewpointWater temp
2015-Sep-02 21:21N 37°55' E 023°03'0 0.0
2015-Sep-02 20:27N 37°55' E 023°03'0 0.0
2015-Sep-02 08:21N 37°55' E 023°03'0 0.0
2015-Sep-02 07:33N 37°55' E 023°03'0 0.0
2015-Sep-02 00:21N 37°55' E 023°03'0 0.0
2015-Sep-01 21:27N 37°55' E 023°03'0 0.0
2015-Sep-01 20:21N 37°55' E 023°03'0 0.0
2015-Sep-01 19:27N 37°55' E 023°03'0 0.0
2015-Sep-01 18:27N 37°55' E 023°03'0 0.0
2015-Sep-01 14:12N 37°55' E 023°03'1 0.0
2015-Aug-31 16:14N 37°54' E 023°03'2 2.5
2015-Aug-31 15:28N 37°52' E 023°03'0 0.0
2015-Aug-31 14:29N 37°52' E 023°03'0 0.0
2015-Aug-31 13:33N 37°52' E 023°03'0 0.0
2015-Aug-31 07:27N 37°53' E 023°03'1 1.3
2015-Aug-31 06:34N 37°54' E 023°02'1 1.0
2015-Aug-31 05:18N 37°55' E 023°03'1 0.5
2015-Aug-31 04:19N 37°54' E 023°03'4 5.3
2015-Aug-31 03:33N 37°53' E 023°08'6 6.0
2015-Aug-31 02:32N 37°52' E 023°15'7 6.8
2015-Aug-31 01:34N 37°51' E 023°24'6 6.3
2015-Aug-31 00:34N 37°49' E 023°31'6 5.9
2015-Aug-30 23:33N 37°45' E 023°36'6 5.8
2015-Aug-30 22:34N 37°40' E 023°40'6 5.5
2015-Aug-30 21:33N 37°39' E 023°47'22 5.2
2015-Aug-30 17:20N 37°55' E 024°07'7 8.4
2015-Aug-30 16:33N 38°02' E 024°07'  
Track history (hours):
 
Tides and Currents Weather Stations Pressure Air Temp Water Temp Dewpoint Dewpoint Depression Visibility Wind Speed Wind Dir Waves Ship Positions

Atalanti

Last reported at 2015-Sep-02 21:21 UTC. Time now 2015-Sep-03 12:58 UTC.
Position N 37°55' E 023°03'.

Length 97 m; draft 3 m.

Type: Other ship. MMSI: 212279000.

Date/timePositionNaut miles runAvg speedWind from/ knotsBaromVisibWave heightAir tempDewpointWater temp
2015-Sep-02 21:21N 37°55' E 023°03'0 0.0
2015-Sep-02 20:27N 37°55' E 023°03'0 0.0
2015-Sep-02 08:21N 37°55' E 023°03'0 0.0
2015-Sep-02 07:33N 37°55' E 023°03'0 0.0
2015-Sep-02 00:21N 37°55' E 023°03'0 0.0
2015-Sep-01 21:27N 37°55' E 023°03'0 0.0
2015-Sep-01 20:21N 37°55' E 023°03'0 0.0
2015-Sep-01 19:27N 37°55' E 023°03'0 0.0
2015-Sep-01 18:27N 37°55' E 023°03'0 0.0
2015-Sep-01 14:12N 37°55' E 023°03'1 0.0
2015-Aug-31 16:14N 37°54' E 023°03'2 2.5
2015-Aug-31 15:28N 37°52' E 023°03'0 0.0
2015-Aug-31 14:29N 37°52' E 023°03'0 0.0
2015-Aug-31 13:33N 37°52' E 023°03'0 0.0
2015-Aug-31 07:27N 37°53' E 023°03'1 1.3
2015-Aug-31 06:34N 37°54' E 023°02'1 1.0
2015-Aug-31 05:18N 37°55' E 023°03'1 0.5
2015-Aug-31 04:19N 37°54' E 023°03'4 5.3
2015-Aug-31 03:33N 37°53' E 023°08'6 6.0
2015-Aug-31 02:32N 37°52' E 023°15'7 6.8
2015-Aug-31 01:34N 37°51' E 023°24'6 6.3
2015-Aug-31 00:34N 37°49' E 023°31'6 5.9
2015-Aug-30 23:33N 37°45' E 023°36'6 5.8
2015-Aug-30 22:34N 37°40' E 023°40'6 5.5
2015-Aug-30 21:33N 37°39' E 023°47'22 5.2
2015-Aug-30 17:20N 37°55' E 024°07'7 8.4
2015-Aug-30 16:33N 38°02' E 024°07'  

Dump ship's entire track history